Impacts TAF Board
For situational awareness. Not to be used for flight planning purposes.
IDs:

KONP - Newport Muni, OR, US

Issued at 1132 UTC 15 Jul 2020
Updated at 1138 UTC 15 Jul 2020
Potential Impact None Slight Moderate High
Time1115Z 15/12Z 15/13Z 15/14Z 15/15Z 15/16Z 15/17Z 15/18Z 15/19Z 15/20Z 15/21Z 15/22Z 15/23Z 16/00Z>>
Type OBS PRVL PRVL
  [TEMP]  
PRVL
  [TEMP]  
PRVL
  [TEMP]  
PRVL
  [TEMP]  
PRVL PRVL PRVL PRVL PRVL PRVL PRVL PRVL
VIS 7 >6 >6
  [6]  
>6
  [6]  
>6
  [6]  
>6
  [6]  
>6 >6 >6 >6 >6 >6 >6 >6
CIG -- -- --
  [28]  
--
  [28]  
--
  [28]  
--
  [28]  
-- -- -- -- -- -- -- --
Cover CLR SCT SCT
  [BKN]  
SCT
  [BKN]  
SCT
  [BKN]  
SCT
  [BKN]  
SKC SKC SKC SKC SKC SKC SKC SKC
FltCat VFR VFR VFR
  [MVFR]  
VFR
  [MVFR]  
VFR
  [MVFR]  
VFR
  [MVFR]  
VFR VFR VFR VFR VFR VFR VFR VFR
WX -- -- --
  [BR]  
--
  [BR]  
--
  [BR]  
--
  [BR]  
-- -- -- -- -- -- -- --
WDir VRB VRB VRB
[VRB]
VRB
[VRB]
VRB
[VRB]
VRB
[VRB]
350 350 350 350 350 350 350 350
WSpd 0 0 0
  [0]  
0
  [0]  
0
  [0]  
0
  [0]  
11 11 11 20 20 20 20 20
WGst -- -- --
  [--]  
--
  [--]  
--
  [--]  
--
  [--]  
22 22 22 28 28 28 28 28
Raw TAF
KONP 151132Z 1512/1612 00000KT P6SM SCT030
  TEMPO 1513/1517 6SM BR SCT006 BKN028
  FM151700 35011G22KT P6SM SKC
  FM152000 35020G28KT P6SM SKC
  FM160300 35011G20KT P6SM SCT100
  FM160800 36004KT P6SM SCT007 BKN035


Raw METAR
KONP 151115Z AUTO 00000KT 7SM CLR 07/07 A3014 RMK AO2
KONP 151055Z AUTO 00000KT 7SM CLR 07/06 A3014 RMK AO2
KONP 151035Z AUTO 00000KT 5SM BR CLR 07/07 A3014 RMK AO2
KONP 151015Z AUTO 00000KT 7SM CLR 07/06 A3014 RMK AO2
KONP 150955Z AUTO 00000KT 7SM CLR 07/07 A3014 RMK AO2
KONP 150935Z AUTO 00000KT 7SM CLR 07/07 A3014 RMK AO2
KONP 150915Z AUTO 00000KT 7SM CLR 07/07 A3014 RMK AO2
KONP 150855Z AUTO 00000KT 7SM CLR 07/07 A3014 RMK AO2
KONP 150835Z AUTO 00000KT 7SM CLR 08/07 A3014 RMK AO2

METAR Board
Radar Display
Forecast Discussion
For situational awareness. Not to be used for flight planning purposes.